sensor_id;sensor_type;location;lat;lon;timestamp;temperature;humidity
6098;DHT22;3077;50.922;6.584;2022-09-02T00:03:44;20.70;31.20
6098;DHT22;3077;50.922;6.584;2022-09-02T00:06:10;20.70;31.30
6098;DHT22;3077;50.922;6.584;2022-09-02T00:08:36;20.60;31.40
6098;DHT22;3077;50.922;6.584;2022-09-02T00:11:03;20.60;31.70
6098;DHT22;3077;50.922;6.584;2022-09-02T00:13:30;20.60;31.80
6098;DHT22;3077;50.922;6.584;2022-09-02T00:15:56;20.50;32.10
6098;DHT22;3077;50.922;6.584;2022-09-02T00:18:22;20.50;32.30
6098;DHT22;3077;50.922;6.584;2022-09-02T00:20:49;20.50;32.50
6098;DHT22;3077;50.922;6.584;2022-09-02T00:23:15;20.40;32.60
6098;DHT22;3077;50.922;6.584;2022-09-02T00:25:42;20.40;32.80
6098;DHT22;3077;50.922;6.584;2022-09-02T00:28:10;20.40;33.20
6098;DHT22;3077;50.922;6.584;2022-09-02T00:30:37;20.40;33.30
6098;DHT22;3077;50.922;6.584;2022-09-02T00:33:03;20.30;33.50
6098;DHT22;3077;50.922;6.584;2022-09-02T00:35:29;20.30;33.90
6098;DHT22;3077;50.922;6.584;2022-09-02T00:37:55;20.30;33.90
6098;DHT22;3077;50.922;6.584;2022-09-02T00:40:21;20.30;34.20
6098;DHT22;3077;50.922;6.584;2022-09-02T00:42:48;20.20;34.30
6098;DHT22;3077;50.922;6.584;2022-09-02T00:45:14;20.20;34.70
6098;DHT22;3077;50.922;6.584;2022-09-02T00:47:40;20.20;34.60
6098;DHT22;3077;50.922;6.584;2022-09-02T00:50:08;20.20;35.00
6098;DHT22;3077;50.922;6.584;2022-09-02T00:52:42;20.20;35.00
6098;DHT22;3077;50.922;6.584;2022-09-02T00:55:15;20.20;35.30
6098;DHT22;3077;50.922;6.584;2022-09-02T00:57:47;20.20;35.30
6098;DHT22;3077;50.922;6.584;2022-09-02T01:00:28;20.10;35.50
6098;DHT22;3077;50.922;6.584;2022-09-02T01:02:57;20.10;35.60
6098;DHT22;3077;50.922;6.584;2022-09-02T01:05:26;20.10;35.80
6098;DHT22;3077;50.922;6.584;2022-09-02T01:07:54;20.10;36.10
6098;DHT22;3077;50.922;6.584;2022-09-02T01:10:31;20.10;36.30
6098;DHT22;3077;50.922;6.584;2022-09-02T01:13:05;20.10;36.60
6098;DHT22;3077;50.922;6.584;2022-09-02T01:15:37;20.00;36.50
6098;DHT22;3077;50.922;6.584;2022-09-02T01:18:05;20.00;37.20
6098;DHT22;3077;50.922;6.584;2022-09-02T01:20:32;20.00;37.40
6098;DHT22;3077;50.922;6.584;2022-09-02T01:22:59;20.00;37.70
6098;DHT22;3077;50.922;6.584;2022-09-02T01:25:29;20.00;37.80
6098;DHT22;3077;50.922;6.584;2022-09-02T01:28:00;20.00;37.80
6098;DHT22;3077;50.922;6.584;2022-09-02T01:30:26;20.00;38.30
6098;DHT22;3077;50.922;6.584;2022-09-02T01:32:52;20.00;38.40
6098;DHT22;3077;50.922;6.584;2022-09-02T01:35:18;20.00;38.40
6098;DHT22;3077;50.922;6.584;2022-09-02T01:37:45;19.90;38.60
6098;DHT22;3077;50.922;6.584;2022-09-02T01:40:13;19.90;38.80
6098;DHT22;3077;50.922;6.584;2022-09-02T01:42:41;19.90;39.10
6098;DHT22;3077;50.922;6.584;2022-09-02T01:45:08;19.90;39.30
6098;DHT22;3077;50.922;6.584;2022-09-02T01:47:34;19.80;39.20
6098;DHT22;3077;50.922;6.584;2022-09-02T01:50:00;19.80;39.70
6098;DHT22;3077;50.922;6.584;2022-09-02T01:52:27;19.70;39.90
6098;DHT22;3077;50.922;6.584;2022-09-02T01:54:54;19.70;40.30
6098;DHT22;3077;50.922;6.584;2022-09-02T01:57:19;19.70;40.70
6098;DHT22;3077;50.922;6.584;2022-09-02T01:59:47;19.60;40.90
6098;DHT22;3077;50.922;6.584;2022-09-02T02:02:13;19.60;41.30
6098;DHT22;3077;50.922;6.584;2022-09-02T02:04:38;19.60;41.70
6098;DHT22;3077;50.922;6.584;2022-09-02T02:07:04;19.50;42.20
6098;DHT22;3077;50.922;6.584;2022-09-02T02:09:30;19.50;42.70
6098;DHT22;3077;50.922;6.584;2022-09-02T02:11:56;19.40;42.80
6098;DHT22;3077;50.922;6.584;2022-09-02T02:14:22;19.30;43.50
6098;DHT22;3077;50.922;6.584;2022-09-02T02:16:48;19.40;44.00
6098;DHT22;3077;50.922;6.584;2022-09-02T02:19:14;19.30;44.70
6098;DHT22;3077;50.922;6.584;2022-09-02T02:21:40;19.30;45.50
6098;DHT22;3077;50.922;6.584;2022-09-02T02:24:07;19.20;45.80
6098;DHT22;3077;50.922;6.584;2022-09-02T02:26:33;19.30;46.00
6098;DHT22;3077;50.922;6.584;2022-09-02T02:28:59;19.30;46.00
6098;DHT22;3077;50.922;6.584;2022-09-02T02:31:25;19.20;46.40
6098;DHT22;3077;50.922;6.584;2022-09-02T02:33:51;19.20;46.80
6098;DHT22;3077;50.922;6.584;2022-09-02T02:36:17;19.20;47.10
6098;DHT22;3077;50.922;6.584;2022-09-02T02:38:43;19.20;47.30
6098;DHT22;3077;50.922;6.584;2022-09-02T02:41:12;19.20;47.70
6098;DHT22;3077;50.922;6.584;2022-09-02T02:43:38;19.10;48.00
6098;DHT22;3077;50.922;6.584;2022-09-02T02:46:05;19.10;48.50
6098;DHT22;3077;50.922;6.584;2022-09-02T02:48:32;19.00;49.50
6098;DHT22;3077;50.922;6.584;2022-09-02T02:50:58;19.00;49.50
6098;DHT22;3077;50.922;6.584;2022-09-02T02:53:24;19.00;50.00
6098;DHT22;3077;50.922;6.584;2022-09-02T02:55:50;18.90;50.00
6098;DHT22;3077;50.922;6.584;2022-09-02T02:58:16;19.00;50.60
6098;DHT22;3077;50.922;6.584;2022-09-02T03:00:42;19.00;51.00
6098;DHT22;3077;50.922;6.584;2022-09-02T03:03:11;18.90;51.30
6098;DHT22;3077;50.922;6.584;2022-09-02T03:05:37;18.90;51.50
6098;DHT22;3077;50.922;6.584;2022-09-02T03:08:05;18.80;51.70
6098;DHT22;3077;50.922;6.584;2022-09-02T03:10:31;18.80;52.20
6098;DHT22;3077;50.922;6.584;2022-09-02T03:13:01;18.80;52.80
6098;DHT22;3077;50.922;6.584;2022-09-02T03:15:28;18.80;53.00
6098;DHT22;3077;50.922;6.584;2022-09-02T03:17:54;18.80;53.30
6098;DHT22;3077;50.922;6.584;2022-09-02T03:20:21;18.70;53.90
6098;DHT22;3077;50.922;6.584;2022-09-02T03:22:47;18.70;54.20
6098;DHT22;3077;50.922;6.584;2022-09-02T03:25:16;18.60;54.40
6098;DHT22;3077;50.922;6.584;2022-09-02T03:27:42;18.60;55.70
6098;DHT22;3077;50.922;6.584;2022-09-02T03:30:14;18.60;55.20
6098;DHT22;3077;50.922;6.584;2022-09-02T03:32:40;18.60;55.70
6098;DHT22;3077;50.922;6.584;2022-09-02T03:35:09;18.60;56.20
6098;DHT22;3077;50.922;6.584;2022-09-02T03:37:35;18.50;57.10
6098;DHT22;3077;50.922;6.584;2022-09-02T03:40:03;18.50;57.50
6098;DHT22;3077;50.922;6.584;2022-09-02T03:42:30;18.40;57.80
6098;DHT22;3077;50.922;6.584;2022-09-02T03:44:55;18.40;58.40
6098;DHT22;3077;50.922;6.584;2022-09-02T03:47:21;18.40;58.90
6098;DHT22;3077;50.922;6.584;2022-09-02T03:49:48;18.40;59.20
6098;DHT22;3077;50.922;6.584;2022-09-02T03:52:13;18.30;60.10
6098;DHT22;3077;50.922;6.584;2022-09-02T03:54:39;18.30;61.20
6098;DHT22;3077;50.922;6.584;2022-09-02T03:57:05;18.30;62.10
6098;DHT22;3077;50.922;6.584;2022-09-02T03:59:30;18.20;62.60
6098;DHT22;3077;50.922;6.584;2022-09-02T04:01:56;18.20;63.50
6098;DHT22;3077;50.922;6.584;2022-09-02T04:04:22;18.20;64.20
6098;DHT22;3077;50.922;6.584;2022-09-02T04:06:48;18.20;65.70
6098;DHT22;3077;50.922;6.584;2022-09-02T04:09:14;18.20;66.20
6098;DHT22;3077;50.922;6.584;2022-09-02T04:11:39;18.20;66.70
6098;DHT22;3077;50.922;6.584;2022-09-02T04:14:08;18.10;67.80
6098;DHT22;3077;50.922;6.584;2022-09-02T04:16:34;18.10;68.60
6098;DHT22;3077;50.922;6.584;2022-09-02T04:19:01;18.10;69.60
6098;DHT22;3077;50.922;6.584;2022-09-02T04:21:28;18.00;70.40
6098;DHT22;3077;50.922;6.584;2022-09-02T04:23:55;18.00;71.70
6098;DHT22;3077;50.922;6.584;2022-09-02T04:26:21;18.00;73.10
6098;DHT22;3077;50.922;6.584;2022-09-02T04:28:48;18.00;74.10
6098;DHT22;3077;50.922;6.584;2022-09-02T04:31:16;18.00;75.10
6098;DHT22;3077;50.922;6.584;2022-09-02T04:33:42;18.00;76.30
6098;DHT22;3077;50.922;6.584;2022-09-02T04:36:10;18.00;77.20
6098;DHT22;3077;50.922;6.584;2022-09-02T04:38:36;17.90;78.20
6098;DHT22;3077;50.922;6.584;2022-09-02T04:41:11;17.90;78.80
6098;DHT22;3077;50.922;6.584;2022-09-02T04:43:37;17.90;79.90
6098;DHT22;3077;50.922;6.584;2022-09-02T04:46:04;18.00;80.70
6098;DHT22;3077;50.922;6.584;2022-09-02T04:48:31;17.90;81.20
6098;DHT22;3077;50.922;6.584;2022-09-02T04:50:57;17.90;82.30
6098;DHT22;3077;50.922;6.584;2022-09-02T04:53:23;17.90;83.60
6098;DHT22;3077;50.922;6.584;2022-09-02T04:55:48;17.90;85.20
6098;DHT22;3077;50.922;6.584;2022-09-02T04:58:14;17.80;85.80
6098;DHT22;3077;50.922;6.584;2022-09-02T05:00:41;17.90;87.80
6098;DHT22;3077;50.922;6.584;2022-09-02T05:03:07;17.90;88.10
6098;DHT22;3077;50.922;6.584;2022-09-02T05:05:34;17.90;89.10
6098;DHT22;3077;50.922;6.584;2022-09-02T05:07:59;17.90;89.70
6098;DHT22;3077;50.922;6.584;2022-09-02T05:10:26;17.90;90.20
6098;DHT22;3077;50.922;6.584;2022-09-02T05:12:53;17.90;90.60
6098;DHT22;3077;50.922;6.584;2022-09-02T05:15:19;17.90;90.90
6098;DHT22;3077;50.922;6.584;2022-09-02T05:17:45;18.00;91.30
6098;DHT22;3077;50.922;6.584;2022-09-02T05:20:11;18.00;91.90
6098;DHT22;3077;50.922;6.584;2022-09-02T05:22:37;18.10;91.80
6098;DHT22;3077;50.922;6.584;2022-09-02T05:25:04;18.10;92.10
6098;DHT22;3077;50.922;6.584;2022-09-02T05:27:32;18.00;92.40
6098;DHT22;3077;50.922;6.584;2022-09-02T05:29:57;18.10;93.00
6098;DHT22;3077;50.922;6.584;2022-09-02T05:32:25;18.10;93.00
6098;DHT22;3077;50.922;6.584;2022-09-02T05:34:52;18.10;92.90
6098;DHT22;3077;50.922;6.584;2022-09-02T05:37:18;18.10;93.10
6098;DHT22;3077;50.922;6.584;2022-09-02T05:39:44;18.10;93.30
6098;DHT22;3077;50.922;6.584;2022-09-02T05:42:10;18.20;93.80
6098;DHT22;3077;50.922;6.584;2022-09-02T05:44:36;18.20;93.90
6098;DHT22;3077;50.922;6.584;2022-09-02T05:47:02;18.20;94.20
6098;DHT22;3077;50.922;6.584;2022-09-02T05:49:28;18.20;94.80
6098;DHT22;3077;50.922;6.584;2022-09-02T05:51:56;18.30;94.80
6098;DHT22;3077;50.922;6.584;2022-09-02T05:54:27;18.30;94.80
6098;DHT22;3077;50.922;6.584;2022-09-02T05:56:56;18.30;95.20
6098;DHT22;3077;50.922;6.584;2022-09-02T05:59:23;18.40;95.20
6098;DHT22;3077;50.922;6.584;2022-09-02T06:01:49;18.40;95.40
6098;DHT22;3077;50.922;6.584;2022-09-02T06:04:16;18.50;95.60
6098;DHT22;3077;50.922;6.584;2022-09-02T06:06:41;18.50;96.10
6098;DHT22;3077;50.922;6.584;2022-09-02T06:09:09;18.60;96.10
6098;DHT22;3077;50.922;6.584;2022-09-02T06:11:38;18.70;95.80
6098;DHT22;3077;50.922;6.584;2022-09-02T06:14:05;18.70;95.70
6098;DHT22;3077;50.922;6.584;2022-09-02T06:16:33;18.80;95.40
6098;DHT22;3077;50.922;6.584;2022-09-02T06:18:59;18.90;95.30
6098;DHT22;3077;50.922;6.584;2022-09-02T06:21:24;18.90;94.90
6098;DHT22;3077;50.922;6.584;2022-09-02T06:23:50;18.90;95.10
6098;DHT22;3077;50.922;6.584;2022-09-02T06:26:16;19.00;95.00
6098;DHT22;3077;50.922;6.584;2022-09-02T06:28:43;19.10;94.60
6098;DHT22;3077;50.922;6.584;2022-09-02T06:31:12;19.20;94.70
6098;DHT22;3077;50.922;6.584;2022-09-02T06:33:39;19.20;94.10
6098;DHT22;3077;50.922;6.584;2022-09-02T06:36:10;19.30;94.10
6098;DHT22;3077;50.922;6.584;2022-09-02T06:38:37;19.40;93.80
6098;DHT22;3077;50.922;6.584;2022-09-02T06:41:04;19.40;93.10
6098;DHT22;3077;50.922;6.584;2022-09-02T06:43:29;19.50;93.00
6098;DHT22;3077;50.922;6.584;2022-09-02T06:45:56;19.50;92.70
6098;DHT22;3077;50.922;6.584;2022-09-02T06:48:22;19.60;92.50
6098;DHT22;3077;50.922;6.584;2022-09-02T06:50:47;19.50;92.40
6098;DHT22;3077;50.922;6.584;2022-09-02T06:53:13;19.50;92.30
6098;DHT22;3077;50.922;6.584;2022-09-02T06:55:43;19.60;92.70
6098;DHT22;3077;50.922;6.584;2022-09-02T06:58:10;19.60;92.70
6098;DHT22;3077;50.922;6.584;2022-09-02T07:00:36;19.70;92.30
6098;DHT22;3077;50.922;6.584;2022-09-02T07:03:02;19.70;92.50
6098;DHT22;3077;50.922;6.584;2022-09-02T07:05:47;19.80;92.40
6098;DHT22;3077;50.922;6.584;2022-09-02T07:08:12;20.00;92.30
6098;DHT22;3077;50.922;6.584;2022-09-02T07:10:39;20.10;91.10
6098;DHT22;3077;50.922;6.584;2022-09-02T07:13:06;20.20;90.80
6098;DHT22;3077;50.922;6.584;2022-09-02T07:15:33;20.40;90.70
6098;DHT22;3077;50.922;6.584;2022-09-02T07:18:00;20.40;89.50
6098;DHT22;3077;50.922;6.584;2022-09-02T07:20:26;20.50;87.40
6098;DHT22;3077;50.922;6.584;2022-09-02T07:22:52;20.50;86.50
6098;DHT22;3077;50.922;6.584;2022-09-02T07:25:17;20.50;86.20
6098;DHT22;3077;50.922;6.584;2022-09-02T07:27:43;20.60;85.80
6098;DHT22;3077;50.922;6.584;2022-09-02T07:30:11;20.50;85.00
6098;DHT22;3077;50.922;6.584;2022-09-02T07:32:37;20.60;85.60
6098;DHT22;3077;50.922;6.584;2022-09-02T07:35:05;20.60;85.90
6098;DHT22;3077;50.922;6.584;2022-09-02T07:37:31;20.70;85.00
6098;DHT22;3077;50.922;6.584;2022-09-02T07:40:00;20.70;84.00
6098;DHT22;3077;50.922;6.584;2022-09-02T07:42:26;20.70;84.70
6098;DHT22;3077;50.922;6.584;2022-09-02T07:44:52;20.70;85.90
6098;DHT22;3077;50.922;6.584;2022-09-02T07:47:18;20.80;85.10
6098;DHT22;3077;50.922;6.584;2022-09-02T07:49:43;20.80;83.90
6098;DHT22;3077;50.922;6.584;2022-09-02T07:52:09;20.80;83.50
6098;DHT22;3077;50.922;6.584;2022-09-02T07:54:35;20.90;83.30
6098;DHT22;3077;50.922;6.584;2022-09-02T07:57:00;21.00;83.40
6098;DHT22;3077;50.922;6.584;2022-09-02T07:59:26;21.00;82.40
6098;DHT22;3077;50.922;6.584;2022-09-02T08:01:52;21.00;82.90
6098;DHT22;3077;50.922;6.584;2022-09-02T08:04:20;21.10;82.90
6098;DHT22;3077;50.922;6.584;2022-09-02T08:06:48;21.20;83.20
6098;DHT22;3077;50.922;6.584;2022-09-02T08:09:15;21.30;82.70
6098;DHT22;3077;50.922;6.584;2022-09-02T08:11:44;21.40;80.40
6098;DHT22;3077;50.922;6.584;2022-09-02T08:14:13;21.50;80.50
6098;DHT22;3077;50.922;6.584;2022-09-02T08:16:39;21.50;80.30
6098;DHT22;3077;50.922;6.584;2022-09-02T08:19:06;21.70;80.90
6098;DHT22;3077;50.922;6.584;2022-09-02T08:21:32;21.80;78.90
6098;DHT22;3077;50.922;6.584;2022-09-02T08:23:57;22.00;78.60
6098;DHT22;3077;50.922;6.584;2022-09-02T08:26:24;22.00;76.80
6098;DHT22;3077;50.922;6.584;2022-09-02T08:28:52;22.10;75.90
6098;DHT22;3077;50.922;6.584;2022-09-02T08:31:17;22.20;74.20
6098;DHT22;3077;50.922;6.584;2022-09-02T08:33:43;22.40;74.20
6098;DHT22;3077;50.922;6.584;2022-09-02T08:36:09;22.40;71.80
6098;DHT22;3077;50.922;6.584;2022-09-02T08:38:36;22.50;70.60
6098;DHT22;3077;50.922;6.584;2022-09-02T08:41:11;22.60;70.50
6098;DHT22;3077;50.922;6.584;2022-09-02T08:43:40;22.70;69.00
6098;DHT22;3077;50.922;6.584;2022-09-02T08:46:10;22.70;67.20
6098;DHT22;3077;50.922;6.584;2022-09-02T08:48:59;22.80;68.40
6098;DHT22;3077;50.922;6.584;2022-09-02T08:54:01;22.90;66.30
6098;DHT22;3077;50.922;6.584;2022-09-02T08:56:28;23.10;66.10
6098;DHT22;3077;50.922;6.584;2022-09-02T08:58:55;23.10;66.60
6098;DHT22;3077;50.922;6.584;2022-09-02T09:07:09;23.40;63.40
6098;DHT22;3077;50.922;6.584;2022-09-02T09:12:26;23.70;60.80
6098;DHT22;3077;50.922;6.584;2022-09-02T09:17:39;23.90;60.10
6098;DHT22;3077;50.922;6.584;2022-09-02T09:20:14;24.00;58.90
6098;DHT22;3077;50.922;6.584;2022-09-02T09:22:40;24.00;59.20
6098;DHT22;3077;50.922;6.584;2022-09-02T09:25:12;24.10;57.60
6098;DHT22;3077;50.922;6.584;2022-09-02T09:27:40;24.20;57.40
6098;DHT22;3077;50.922;6.584;2022-09-02T09:30:08;24.40;57.00
6098;DHT22;3077;50.922;6.584;2022-09-02T09:32:38;24.50;55.60
6098;DHT22;3077;50.922;6.584;2022-09-02T09:35:10;24.50;54.70
6098;DHT22;3077;50.922;6.584;2022-09-02T09:37:39;24.60;54.00
6098;DHT22;3077;50.922;6.584;2022-09-02T09:40:29;24.70;52.80
6098;DHT22;3077;50.922;6.584;2022-09-02T09:48:26;25.00;50.20
6098;DHT22;3077;50.922;6.584;2022-09-02T09:53:31;25.20;48.20
6098;DHT22;3077;50.922;6.584;2022-09-02T09:56:05;25.40;45.90
6098;DHT22;3077;50.922;6.584;2022-09-02T10:01:29;25.40;41.50
6098;DHT22;3077;50.922;6.584;2022-09-02T10:04:06;25.40;41.30
6098;DHT22;3077;50.922;6.584;2022-09-02T10:09:27;25.60;39.60
6098;DHT22;3077;50.922;6.584;2022-09-02T10:12:10;25.70;38.60
6098;DHT22;3077;50.922;6.584;2022-09-02T10:14:47;25.80;37.70
6098;DHT22;3077;50.922;6.584;2022-09-02T10:20:35;25.90;35.40
6098;DHT22;3077;50.922;6.584;2022-09-02T10:37:26;26.70;28.60
6098;DHT22;3077;50.922;6.584;2022-09-02T10:40:07;26.80;26.60
6098;DHT22;3077;50.922;6.584;2022-09-02T10:45:44;27.10;25.50
6098;DHT22;3077;50.922;6.584;2022-09-02T10:53:50;27.50;21.20
6098;DHT22;3077;50.922;6.584;2022-09-02T10:56:24;27.40;21.20
6098;DHT22;3077;50.922;6.584;2022-09-02T10:59:17;27.40;18.40
6098;DHT22;3077;50.922;6.584;2022-09-02T11:07:07;27.00;18.30
6098;DHT22;3077;50.922;6.584;2022-09-02T11:09:45;27.10;18.30
6098;DHT22;3077;50.922;6.584;2022-09-02T11:12:21;27.20;18.80
6098;DHT22;3077;50.922;6.584;2022-09-02T11:17:29;27.50;18.00
6098;DHT22;3077;50.922;6.584;2022-09-02T11:23:02;27.70;18.60
6098;DHT22;3077;50.922;6.584;2022-09-02T11:25:40;27.80;17.30
6098;DHT22;3077;50.922;6.584;2022-09-02T11:28:20;27.70;18.10
6098;DHT22;3077;50.922;6.584;2022-09-02T11:31:09;27.90;17.40
6098;DHT22;3077;50.922;6.584;2022-09-02T11:33:54;28.10;17.90
6098;DHT22;3077;50.922;6.584;2022-09-02T11:36:20;28.40;16.90
6098;DHT22;3077;50.922;6.584;2022-09-02T11:39:08;28.50;16.60
6098;DHT22;3077;50.922;6.584;2022-09-02T11:41:54;28.60;16.70
6098;DHT22;3077;50.922;6.584;2022-09-02T11:47:18;28.80;16.40
6098;DHT22;3077;50.922;6.584;2022-09-02T11:55:09;30.30;14.90
6098;DHT22;3077;50.922;6.584;2022-09-02T11:57:38;31.30;14.40
6098;DHT22;3077;50.922;6.584;2022-09-02T12:00:12;32.10;12.50
6098;DHT22;3077;50.922;6.584;2022-09-02T12:07:58;34.00;9.00
6098;DHT22;3077;50.922;6.584;2022-09-02T12:18:44;34.90;6.40
6098;DHT22;3077;50.922;6.584;2022-09-02T12:21:12;34.80;6.40
6098;DHT22;3077;50.922;6.584;2022-09-02T12:31:48;35.50;4.80
6098;DHT22;3077;50.922;6.584;2022-09-02T12:36:51;35.40;5.50
6098;DHT22;3077;50.922;6.584;2022-09-02T12:50:05;36.80;3.50
6098;DHT22;3077;50.922;6.584;2022-09-02T12:55:19;36.70;3.00
6098;DHT22;3077;50.922;6.584;2022-09-02T12:57:51;37.30;2.70
6098;DHT22;3077;50.922;6.584;2022-09-02T13:00:28;37.30;2.70
6098;DHT22;3077;50.922;6.584;2022-09-02T13:11:41;37.40;1.70
6098;DHT22;3077;50.922;6.584;2022-09-02T13:14:42;37.40;1.40
6098;DHT22;3077;50.922;6.584;2022-09-02T13:20:19;37.20;1.40
6098;DHT22;3077;50.922;6.584;2022-09-02T13:31:26;38.90;1.00
6098;DHT22;3077;50.922;6.584;2022-09-02T13:34:03;39.20;1.00
6098;DHT22;3077;50.922;6.584;2022-09-02T13:36:35;39.40;1.00
6098;DHT22;3077;50.922;6.584;2022-09-02T13:39:33;39.30;1.00
6098;DHT22;3077;50.922;6.584;2022-09-02T13:41:58;39.20;1.00
6098;DHT22;3077;50.922;6.584;2022-09-02T13:44:27;39.50;1.00
6098;DHT22;3077;50.922;6.584;2022-09-02T13:47:15;39.90;1.00
6098;DHT22;3077;50.922;6.584;2022-09-02T13:49:41;40.10;1.00
6098;DHT22;3077;50.922;6.584;2022-09-02T13:52:18;40.40;1.00
6098;DHT22;3077;50.922;6.584;2022-09-02T13:54:47;40.90;1.00
6098;DHT22;3077;50.922;6.584;2022-09-02T13:57:19;41.30;1.00
6098;DHT22;3077;50.922;6.584;2022-09-02T13:59:49;41.30;1.00
6098;DHT22;3077;50.922;6.584;2022-09-02T14:05:06;40.70;1.00
6098;DHT22;3077;50.922;6.584;2022-09-02T14:07:45;40.70;1.00
6098;DHT22;3077;50.922;6.584;2022-09-02T14:10:16;40.70;1.00
6098;DHT22;3077;50.922;6.584;2022-09-02T14:12:42;40.80;1.00
6098;DHT22;3077;50.922;6.584;2022-09-02T14:15:12;40.80;1.00
6098;DHT22;3077;50.922;6.584;2022-09-02T14:17:39;40.50;1.00
6098;DHT22;3077;50.922;6.584;2022-09-02T14:22:35;40.40;1.00
6098;DHT22;3077;50.922;6.584;2022-09-02T14:25:15;40.80;1.00
6098;DHT22;3077;50.922;6.584;2022-09-02T14:28:17;41.20;1.00
6098;DHT22;3077;50.922;6.584;2022-09-02T14:30:53;41.70;1.00
6098;DHT22;3077;50.922;6.584;2022-09-02T14:36:01;42.10;1.00
6098;DHT22;3077;50.922;6.584;2022-09-02T14:38:36;41.40;1.00
6098;DHT22;3077;50.922;6.584;2022-09-02T14:41:13;41.20;1.00
6098;DHT22;3077;50.922;6.584;2022-09-02T14:43:49;41.50;1.00
6098;DHT22;3077;50.922;6.584;2022-09-02T14:46:53;41.90;1.00
6098;DHT22;3077;50.922;6.584;2022-09-02T14:51:53;42.00;1.00
6098;DHT22;3077;50.922;6.584;2022-09-02T14:54:41;41.70;1.00
6098;DHT22;3077;50.922;6.584;2022-09-02T14:59:46;41.70;1.00
6098;DHT22;3077;50.922;6.584;2022-09-02T15:04:53;41.30;1.00
6098;DHT22;3077;50.922;6.584;2022-09-02T15:07:19;41.40;1.00
6098;DHT22;3077;50.922;6.584;2022-09-02T15:09:45;41.30;1.00
6098;DHT22;3077;50.922;6.584;2022-09-02T15:12:16;41.30;1.00
6098;DHT22;3077;50.922;6.584;2022-09-02T15:14:44;41.10;1.00
6098;DHT22;3077;50.922;6.584;2022-09-02T15:17:13;41.50;1.00
6098;DHT22;3077;50.922;6.584;2022-09-02T15:19:39;42.00;1.00
6098;DHT22;3077;50.922;6.584;2022-09-02T15:22:05;42.30;1.00
6098;DHT22;3077;50.922;6.584;2022-09-02T15:24:30;42.50;1.00
6098;DHT22;3077;50.922;6.584;2022-09-02T15:26:56;42.60;1.00
6098;DHT22;3077;50.922;6.584;2022-09-02T15:29:22;42.40;1.00
6098;DHT22;3077;50.922;6.584;2022-09-02T15:31:52;42.50;1.00
6098;DHT22;3077;50.922;6.584;2022-09-02T15:34:18;42.60;1.00
6098;DHT22;3077;50.922;6.584;2022-09-02T15:36:45;42.70;1.00
6098;DHT22;3077;50.922;6.584;2022-09-02T15:39:10;43.00;1.00
6098;DHT22;3077;50.922;6.584;2022-09-02T15:41:36;42.90;1.00
6098;DHT22;3077;50.922;6.584;2022-09-02T15:44:05;42.20;1.00
6098;DHT22;3077;50.922;6.584;2022-09-02T15:46:34;41.70;1.00
6098;DHT22;3077;50.922;6.584;2022-09-02T15:49:06;41.60;1.00
6098;DHT22;3077;50.922;6.584;2022-09-02T15:51:32;41.60;1.00
6098;DHT22;3077;50.922;6.584;2022-09-02T15:54:07;41.50;1.00
6098;DHT22;3077;50.922;6.584;2022-09-02T15:56:36;41.30;1.00
6098;DHT22;3077;50.922;6.584;2022-09-02T15:59:04;41.00;1.00
6098;DHT22;3077;50.922;6.584;2022-09-02T16:01:38;41.10;1.00
6098;DHT22;3077;50.922;6.584;2022-09-02T16:04:05;41.30;1.00
6098;DHT22;3077;50.922;6.584;2022-09-02T16:06:33;40.70;1.00
6098;DHT22;3077;50.922;6.584;2022-09-02T16:09:01;40.90;1.00
6098;DHT22;3077;50.922;6.584;2022-09-02T16:11:27;41.30;1.00
6098;DHT22;3077;50.922;6.584;2022-09-02T16:13:53;41.50;1.00
6098;DHT22;3077;50.922;6.584;2022-09-02T16:16:19;41.40;1.00
6098;DHT22;3077;50.922;6.584;2022-09-02T16:18:52;41.50;1.00
6098;DHT22;3077;50.922;6.584;2022-09-02T16:21:19;41.10;1.00
6098;DHT22;3077;50.922;6.584;2022-09-02T16:23:45;40.00;1.00
6098;DHT22;3077;50.922;6.584;2022-09-02T16:26:12;38.50;1.00
6098;DHT22;3077;50.922;6.584;2022-09-02T16:28:41;38.10;1.00
6098;DHT22;3077;50.922;6.584;2022-09-02T16:31:08;38.30;1.00
6098;DHT22;3077;50.922;6.584;2022-09-02T16:33:35;38.70;1.00
6098;DHT22;3077;50.922;6.584;2022-09-02T16:36:01;39.20;1.00
6098;DHT22;3077;50.922;6.584;2022-09-02T16:38:27;39.60;1.00
6098;DHT22;3077;50.922;6.584;2022-09-02T16:40:55;40.00;1.00
6098;DHT22;3077;50.922;6.584;2022-09-02T16:43:22;40.30;1.00
6098;DHT22;3077;50.922;6.584;2022-09-02T16:45:48;40.30;1.00
6098;DHT22;3077;50.922;6.584;2022-09-02T16:48:15;40.30;1.00
6098;DHT22;3077;50.922;6.584;2022-09-02T16:50:42;40.50;1.00
6098;DHT22;3077;50.922;6.584;2022-09-02T16:53:07;40.30;1.00
6098;DHT22;3077;50.922;6.584;2022-09-02T16:55:33;40.00;1.00
6098;DHT22;3077;50.922;6.584;2022-09-02T16:57:58;39.90;1.00
6098;DHT22;3077;50.922;6.584;2022-09-02T17:00:27;39.50;1.00
6098;DHT22;3077;50.922;6.584;2022-09-02T17:02:53;39.30;1.00
6098;DHT22;3077;50.922;6.584;2022-09-02T17:05:18;39.10;1.00
6098;DHT22;3077;50.922;6.584;2022-09-02T17:07:44;39.10;1.00
6098;DHT22;3077;50.922;6.584;2022-09-02T17:10:10;38.90;1.00
6098;DHT22;3077;50.922;6.584;2022-09-02T17:12:36;38.70;1.00
6098;DHT22;3077;50.922;6.584;2022-09-02T17:15:02;38.50;1.00
6098;DHT22;3077;50.922;6.584;2022-09-02T17:17:28;38.30;1.00
6098;DHT22;3077;50.922;6.584;2022-09-02T17:19:54;38.00;1.00
6098;DHT22;3077;50.922;6.584;2022-09-02T17:22:19;37.80;1.00
6098;DHT22;3077;50.922;6.584;2022-09-02T17:24:45;37.60;1.00
6098;DHT22;3077;50.922;6.584;2022-09-02T17:27:11;37.40;1.00
6098;DHT22;3077;50.922;6.584;2022-09-02T17:29:37;37.10;1.00
6098;DHT22;3077;50.922;6.584;2022-09-02T17:32:03;36.90;1.00
6098;DHT22;3077;50.922;6.584;2022-09-02T17:34:29;36.80;1.00
6098;DHT22;3077;50.922;6.584;2022-09-02T17:36:57;36.60;1.00
6098;DHT22;3077;50.922;6.584;2022-09-02T17:39:23;36.20;1.00
6098;DHT22;3077;50.922;6.584;2022-09-02T17:41:49;35.90;1.00
6098;DHT22;3077;50.922;6.584;2022-09-02T17:44:29;35.70;1.00
6098;DHT22;3077;50.922;6.584;2022-09-02T17:47:00;35.10;1.00
6098;DHT22;3077;50.922;6.584;2022-09-02T17:49:26;34.30;1.00
6098;DHT22;3077;50.922;6.584;2022-09-02T17:51:52;33.60;1.00
6098;DHT22;3077;50.922;6.584;2022-09-02T17:54:18;33.00;1.00
6098;DHT22;3077;50.922;6.584;2022-09-02T17:56:49;32.70;1.10
6098;DHT22;3077;50.922;6.584;2022-09-02T18:10:14;30.40;3.10
6098;DHT22;3077;50.922;6.584;2022-09-02T18:12:40;30.10;3.50
6098;DHT22;3077;50.922;6.584;2022-09-02T18:15:15;29.70;4.10
6098;DHT22;3077;50.922;6.584;2022-09-02T18:17:47;29.30;4.20
6098;DHT22;3077;50.922;6.584;2022-09-02T18:20:38;28.90;4.80
6098;DHT22;3077;50.922;6.584;2022-09-02T18:23:36;28.70;5.20
6098;DHT22;3077;50.922;6.584;2022-09-02T18:26:27;28.50;5.50
6098;DHT22;3077;50.922;6.584;2022-09-02T18:45:27;27.50;7.10
6098;DHT22;3077;50.922;6.584;2022-09-02T18:48:11;27.50;7.20
6098;DHT22;3077;50.922;6.584;2022-09-02T18:50:48;27.40;7.10
6098;DHT22;3077;50.922;6.584;2022-09-02T18:53:21;27.30;7.50
6098;DHT22;3077;50.922;6.584;2022-09-02T18:55:47;27.20;7.30
6098;DHT22;3077;50.922;6.584;2022-09-02T18:58:43;27.10;7.50
6098;DHT22;3077;50.922;6.584;2022-09-02T19:03:43;26.80;7.90
6098;DHT22;3077;50.922;6.584;2022-09-02T19:06:21;26.80;8.00
6098;DHT22;3077;50.922;6.584;2022-09-02T19:08:47;26.70;8.20
6098;DHT22;3077;50.922;6.584;2022-09-02T19:11:15;26.60;8.30
6098;DHT22;3077;50.922;6.584;2022-09-02T19:16:18;26.50;8.30
6098;DHT22;3077;50.922;6.584;2022-09-02T19:18:44;26.40;8.50
6098;DHT22;3077;50.922;6.584;2022-09-02T19:21:55;26.20;8.80